createdAt,value
2022-07-29T00:01:59.750Z,13.08
2022-07-29T00:04:27.719Z,13.08
2022-07-29T00:06:55.564Z,13.22
2022-07-29T00:09:23.313Z,13.20
2022-07-29T00:11:51.354Z,13.18
2022-07-29T00:14:19.258Z,13.16
2022-07-29T00:16:47.229Z,13.04
2022-07-29T00:19:15.332Z,13.02
2022-07-29T00:21:43.164Z,12.94
2022-07-29T00:24:11.276Z,12.96
2022-07-29T00:26:39.129Z,12.93
2022-07-29T00:29:32.922Z,12.89
2022-07-29T00:31:54.873Z,12.98
2022-07-29T00:34:41.098Z,12.92
2022-07-29T00:37:09.094Z,13.00
2022-07-29T00:39:36.811Z,12.84
2022-07-29T00:42:05.775Z,12.81
2022-07-29T00:44:39.046Z,12.71
2022-07-29T00:47:07.400Z,12.57
2022-07-29T00:49:36.352Z,12.51
2022-07-29T00:52:06.251Z,12.48
2022-07-29T00:54:44.240Z,12.52
2022-07-29T00:57:14.269Z,12.47
2022-07-29T00:59:43.436Z,12.62
2022-07-29T01:02:11.257Z,12.79
2022-07-29T01:04:39.713Z,12.71
2022-07-29T01:07:08.228Z,12.62
2022-07-29T01:09:45.761Z,12.52
2022-07-29T01:12:25.427Z,12.52
2022-07-29T01:14:55.018Z,12.65
2022-07-29T01:17:32.793Z,12.66
2022-07-29T01:20:31.859Z,12.51
2022-07-29T01:23:05.739Z,12.44
2022-07-29T01:26:03.877Z,12.48
2022-07-29T01:28:40.012Z,12.42
2022-07-29T01:31:11.611Z,12.33
2022-07-29T01:33:53.713Z,12.27
2022-07-29T01:36:38.229Z,12.38
2022-07-29T01:39:20.945Z,12.39
2022-07-29T01:42:16.202Z,12.25
2022-07-29T01:45:11.704Z,12.19
2022-07-29T01:47:54.053Z,12.14
2022-07-29T01:50:32.426Z,12.09
2022-07-29T01:53:06.495Z,12.09
2022-07-29T01:55:39.496Z,12.28
2022-07-29T01:58:08.673Z,12.21
2022-07-29T02:00:38.596Z,12.19
2022-07-29T02:03:11.833Z,12.11
2022-07-29T02:05:42.238Z,12.06
2022-07-29T02:08:11.648Z,12.07
2022-07-29T02:10:41.777Z,11.99
2022-07-29T02:13:13.304Z,11.94
2022-07-29T02:15:42.887Z,11.91
2022-07-29T02:18:19.736Z,12.01
2022-07-29T02:20:50.360Z,12.12
2022-07-29T02:23:24.429Z,12.18
2022-07-29T02:25:56.589Z,12.10
2022-07-29T02:28:27.900Z,12.04
2022-07-29T02:30:59.879Z,11.98
2022-07-29T02:33:29.079Z,11.89
2022-07-29T02:35:57.495Z,11.83
2022-07-29T02:38:45.565Z,11.81
2022-07-29T02:41:31.463Z,11.72
2022-07-29T02:44:06.271Z,11.79
2022-07-29T02:46:37.698Z,11.82
2022-07-29T02:49:16.756Z,11.96
2022-07-29T02:52:02.556Z,11.80
2022-07-29T02:54:36.422Z,11.70
2022-07-29T02:57:19.994Z,11.74
2022-07-29T02:59:52.556Z,11.71
2022-07-29T03:02:21.716Z,11.66
2022-07-29T03:04:51.190Z,11.80
2022-07-29T03:07:21.409Z,11.89
2022-07-29T03:09:50.620Z,11.87
2022-07-29T03:12:19.007Z,11.98
2022-07-29T03:14:48.096Z,11.98
2022-07-29T03:17:16.461Z,11.97
2022-07-29T03:19:44.249Z,11.95
2022-07-29T03:22:12.775Z,11.98
2022-07-29T03:24:40.853Z,12.00
2022-07-29T03:27:08.574Z,11.99
2022-07-29T03:29:36.293Z,12.02
2022-07-29T03:32:08.389Z,12.02
2022-07-29T03:34:38.468Z,12.04
2022-07-29T03:37:07.314Z,12.00
2022-07-29T03:39:39.076Z,11.99
2022-07-29T03:42:09.363Z,11.99
2022-07-29T03:44:38.625Z,12.10
2022-07-29T03:47:10.256Z,12.26
2022-07-29T03:49:40.225Z,12.27
2022-07-29T03:52:08.584Z,12.30
2022-07-29T03:54:36.394Z,12.31
2022-07-29T03:57:06.717Z,12.35
2022-07-29T03:59:35.085Z,12.36
2022-07-29T04:02:05.137Z,12.42
2022-07-29T04:04:37.119Z,12.53
2022-07-29T04:07:05.153Z,12.54
2022-07-29T04:09:33.091Z,12.66
2022-07-29T04:12:04.101Z,12.93
2022-07-29T04:14:35.768Z,13.00
2022-07-29T04:17:05.514Z,13.09
2022-07-29T04:19:33.425Z,13.23
2022-07-29T04:22:02.250Z,13.26
2022-07-29T04:24:30.139Z,13.32
2022-07-29T04:26:57.840Z,13.39
2022-07-29T04:29:25.577Z,13.48
2022-07-29T04:31:53.503Z,13.67
2022-07-29T04:34:21.342Z,13.69
2022-07-29T04:36:49.107Z,13.87
2022-07-29T04:39:22.628Z,13.94
2022-07-29T04:41:52.512Z,14.11
2022-07-29T04:44:28.708Z,14.14
2022-07-29T04:46:57.720Z,14.28
2022-07-29T04:49:25.856Z,14.35
2022-07-29T04:51:53.736Z,14.43
2022-07-29T04:54:21.435Z,14.51
2022-07-29T04:56:49.690Z,14.67
2022-07-29T04:59:17.381Z,14.75
2022-07-29T05:01:45.116Z,14.81
2022-07-29T05:04:13.339Z,14.89
2022-07-29T05:06:41.390Z,15.04
2022-07-29T05:09:09.111Z,15.26
2022-07-29T05:11:36.924Z,15.26
2022-07-29T05:14:04.581Z,15.41
2022-07-29T05:16:32.356Z,15.51
2022-07-29T05:19:00.227Z,15.58
2022-07-29T05:21:27.972Z,15.69
2022-07-29T05:23:55.666Z,15.88
2022-07-29T05:26:23.627Z,16.01
2022-07-29T05:28:51.664Z,16.25
2022-07-29T05:31:19.497Z,16.38
2022-07-29T05:33:47.518Z,16.51
2022-07-29T05:36:15.438Z,16.62
2022-07-29T05:38:43.221Z,16.64
2022-07-29T05:41:11.419Z,16.85
2022-07-29T05:43:39.113Z,16.92
2022-07-29T05:46:07.009Z,17.05
2022-07-29T05:48:35.067Z,17.17
2022-07-29T05:51:03.177Z,17.37
2022-07-29T05:53:30.919Z,17.57
2022-07-29T05:55:58.966Z,17.71
2022-07-29T05:58:26.619Z,17.76
2022-07-29T06:00:54.322Z,17.79
2022-07-29T06:03:22.253Z,17.80
2022-07-29T06:05:49.917Z,17.76
2022-07-29T06:08:18.322Z,17.89
2022-07-29T06:10:46.687Z,17.94
2022-07-29T06:13:16.907Z,18.01
2022-07-29T06:15:45.298Z,18.16
2022-07-29T06:18:14.419Z,18.28
2022-07-29T06:20:42.240Z,18.43
2022-07-29T06:23:10.982Z,18.50
2022-07-29T06:25:40.890Z,18.57
2022-07-29T06:28:08.660Z,18.69
2022-07-29T06:30:36.372Z,18.77
2022-07-29T06:33:05.034Z,18.89
2022-07-29T06:35:39.103Z,19.07
2022-07-29T06:38:31.392Z,19.17
2022-07-29T06:41:01.819Z,19.09
2022-07-29T06:43:51.718Z,19.29
2022-07-29T06:46:23.936Z,19.33
2022-07-29T06:48:53.361Z,19.57
2022-07-29T06:51:23.709Z,19.59
2022-07-29T06:53:58.403Z,19.72
2022-07-29T06:56:38.489Z,19.76
2022-07-29T06:59:12.451Z,19.90
2022-07-29T07:01:43.515Z,20.06
2022-07-29T07:04:12.092Z,20.13
2022-07-29T07:06:40.187Z,20.36
2022-07-29T07:09:08.359Z,20.63
2022-07-29T07:11:36.468Z,20.69
2022-07-29T07:14:04.542Z,20.79
2022-07-29T07:16:33.464Z,21.24
2022-07-29T07:19:01.622Z,22.35
2022-07-29T07:21:30.248Z,23.93
2022-07-29T07:23:59.408Z,26.96
2022-07-29T07:26:28.114Z,29.51
2022-07-29T07:28:55.845Z,32.19
2022-07-29T07:31:23.824Z,34.06
2022-07-29T07:33:52.726Z,35.80
2022-07-29T07:36:20.698Z,37.57
2022-07-29T07:38:48.695Z,38.03
2022-07-29T07:41:16.563Z,38.67
2022-07-29T07:43:44.388Z,40.05
2022-07-29T07:46:12.366Z,40.77
2022-07-29T07:48:40.161Z,41.51
2022-07-29T07:51:08.341Z,41.75
2022-07-29T07:53:36.323Z,43.06
2022-07-29T07:56:10.951Z,43.31
2022-07-29T07:58:40.270Z,43.34
2022-07-29T08:01:08.753Z,42.91
2022-07-29T08:03:36.575Z,43.04
2022-07-29T08:06:05.043Z,43.39
2022-07-29T08:08:32.892Z,43.82
2022-07-29T08:11:06.925Z,44.44
2022-07-29T08:13:38.819Z,44.13
2022-07-29T08:16:16.033Z,44.98
2022-07-29T08:18:45.780Z,45.61
2022-07-29T08:21:15.458Z,46.04
2022-07-29T08:23:52.992Z,46.56
2022-07-29T08:26:23.634Z,46.56
2022-07-29T08:28:51.901Z,45.88
2022-07-29T08:31:19.674Z,45.24
2022-07-29T08:33:47.706Z,42.47
2022-07-29T08:36:15.465Z,39.61
2022-07-29T08:38:43.168Z,36.57
2022-07-29T08:41:11.210Z,36.81
2022-07-29T08:43:41.943Z,38.39
2022-07-29T08:46:10.030Z,37.21
2022-07-29T08:48:38.878Z,36.05
2022-07-29T08:51:08.628Z,34.68
2022-07-29T08:53:39.147Z,34.68
2022-07-29T08:56:07.963Z,36.40
2022-07-29T08:58:37.168Z,38.89
2022-07-29T09:01:12.206Z,39.26
2022-07-29T09:03:44.561Z,37.06
2022-07-29T09:06:16.016Z,35.43
2022-07-29T09:08:44.710Z,35.25
2022-07-29T09:11:14.587Z,37.12
2022-07-29T09:13:42.404Z,38.82
2022-07-29T09:16:10.953Z,39.96
2022-07-29T09:18:39.844Z,41.04
2022-07-29T09:21:35.666Z,41.00
2022-07-29T09:24:10.970Z,41.34
2022-07-29T09:26:41.842Z,40.27
2022-07-29T09:29:19.631Z,38.92
2022-07-29T09:31:52.917Z,38.00
2022-07-29T09:34:29.449Z,37.90
2022-07-29T09:36:58.152Z,37.26
2022-07-29T09:39:34.717Z,37.20
2022-07-29T09:42:05.457Z,36.33
2022-07-29T09:44:49.140Z,34.45
2022-07-29T09:47:19.072Z,34.95
2022-07-29T09:49:56.006Z,35.87
2022-07-29T09:52:23.779Z,35.31
2022-07-29T09:54:51.942Z,35.56
2022-07-29T09:57:31.030Z,36.92
2022-07-29T10:00:10.643Z,37.51
2022-07-29T10:02:44.580Z,38.03
2022-07-29T10:05:26.978Z,38.34
2022-07-29T10:08:04.779Z,37.74
2022-07-29T10:10:35.408Z,36.64
2022-07-29T10:13:12.167Z,36.47
2022-07-29T10:15:46.941Z,35.44
2022-07-29T10:18:15.760Z,34.68
2022-07-29T10:20:44.063Z,34.33
2022-07-29T10:23:12.137Z,33.75
2022-07-29T10:25:40.025Z,33.31
2022-07-29T10:28:11.211Z,32.86
2022-07-29T10:30:42.540Z,31.66
2022-07-29T10:33:34.829Z,30.99
2022-07-29T10:36:05.625Z,30.47
2022-07-29T10:38:46.073Z,30.33
2022-07-29T10:41:32.118Z,30.31
2022-07-29T10:44:22.998Z,30.15
2022-07-29T10:46:53.413Z,30.22
2022-07-29T10:49:26.024Z,30.27
2022-07-29T10:51:59.040Z,30.63
2022-07-29T10:54:44.114Z,30.54
2022-07-29T10:57:53.186Z,30.31
2022-07-29T11:00:16.842Z,30.16
2022-07-29T11:02:49.502Z,29.86
2022-07-29T11:05:20.441Z,29.45
2022-07-29T11:08:25.930Z,29.33
2022-07-29T11:11:17.441Z,29.21
2022-07-29T11:13:48.869Z,29.13
2022-07-29T11:16:21.271Z,29.39
2022-07-29T11:19:07.985Z,29.11
2022-07-29T11:21:54.091Z,28.90
2022-07-29T11:24:29.966Z,28.83
2022-07-29T11:27:31.930Z,29.18
2022-07-29T11:30:03.401Z,29.36
2022-07-29T11:32:44.738Z,29.12
2022-07-29T11:35:37.099Z,29.29
2022-07-29T11:38:28.568Z,29.26
2022-07-29T11:41:18.862Z,29.29
2022-07-29T11:43:56.837Z,29.48
2022-07-29T11:46:51.518Z,29.38
2022-07-29T11:49:32.102Z,29.36
2022-07-29T11:52:04.976Z,29.26
2022-07-29T11:54:57.286Z,29.40
2022-07-29T11:57:35.976Z,29.77
2022-07-29T12:00:12.175Z,29.79
2022-07-29T12:02:44.035Z,29.93
2022-07-29T12:05:35.967Z,30.13
2022-07-29T12:08:22.664Z,30.28
2022-07-29T12:10:52.438Z,30.07
2022-07-29T12:13:22.342Z,29.93
2022-07-29T12:16:00.098Z,29.45
2022-07-29T12:18:28.519Z,29.17
2022-07-29T12:21:04.740Z,29.20
2022-07-29T12:23:35.260Z,28.84
2022-07-29T12:26:10.531Z,28.78
2022-07-29T12:28:40.106Z,28.85
2022-07-29T12:31:14.283Z,28.95
2022-07-29T12:33:42.451Z,29.22
2022-07-29T12:36:17.368Z,29.10
2022-07-29T12:38:46.613Z,29.12
2022-07-29T12:41:14.881Z,29.16
2022-07-29T12:43:55.187Z,29.02
2022-07-29T12:46:23.538Z,28.68
2022-07-29T12:48:56.092Z,28.25
2022-07-29T12:51:50.193Z,27.79
2022-07-29T12:54:17.977Z,27.53
2022-07-29T12:56:46.130Z,27.35
2022-07-29T12:59:22.786Z,27.22
2022-07-29T13:01:52.923Z,27.30
2022-07-29T13:04:32.275Z,27.56
2022-07-29T13:07:08.451Z,27.67
2022-07-29T13:09:44.438Z,27.96
2022-07-29T13:12:13.123Z,28.03
2022-07-29T13:14:42.961Z,27.99
2022-07-29T13:17:11.777Z,27.83
2022-07-29T13:19:42.756Z,27.75
2022-07-29T13:22:12.543Z,27.80
2022-07-29T13:24:59.139Z,27.90
2022-07-29T13:27:33.138Z,28.17
2022-07-29T13:30:02.265Z,28.53
2022-07-29T13:32:31.655Z,28.67
2022-07-29T13:35:05.485Z,28.90
2022-07-29T13:37:35.878Z,28.81
2022-07-29T13:40:05.365Z,28.90
2022-07-29T13:42:34.094Z,28.65
2022-07-29T13:45:02.269Z,28.42
2022-07-29T13:47:32.284Z,27.74
2022-07-29T13:50:06.644Z,27.96
2022-07-29T13:52:36.129Z,28.10
2022-07-29T13:55:05.277Z,28.25
2022-07-29T13:57:33.113Z,27.82
2022-07-29T14:00:01.074Z,27.41
2022-07-29T14:02:36.245Z,27.10
2022-07-29T14:05:08.248Z,26.82
2022-07-29T14:07:36.641Z,26.49
2022-07-29T14:10:05.209Z,26.28
2022-07-29T14:12:33.259Z,26.09
2022-07-29T14:15:01.183Z,26.13
2022-07-29T14:17:28.945Z,26.28
2022-07-29T14:19:56.861Z,26.38
2022-07-29T14:22:26.212Z,26.43
2022-07-29T14:24:54.373Z,26.36
2022-07-29T14:27:38.087Z,26.41
2022-07-29T14:30:07.447Z,26.10
2022-07-29T14:32:35.340Z,26.12
2022-07-29T14:35:03.423Z,26.12
2022-07-29T14:37:37.641Z,25.82
2022-07-29T14:40:09.795Z,25.76
2022-07-29T14:42:38.557Z,25.66
2022-07-29T14:45:08.468Z,25.79
2022-07-29T14:47:37.097Z,25.76
2022-07-29T14:50:06.243Z,25.72
2022-07-29T14:52:34.669Z,25.73
2022-07-29T14:55:03.822Z,25.72
2022-07-29T14:57:31.518Z,25.66
2022-07-29T14:59:59.164Z,25.52
2022-07-29T15:02:45.726Z,25.32
2022-07-29T15:05:14.937Z,25.25
2022-07-29T15:07:42.885Z,25.17
2022-07-29T15:10:10.734Z,25.01
2022-07-29T15:12:42.503Z,24.91
2022-07-29T15:15:11.056Z,24.75
2022-07-29T15:17:38.830Z,25.02
2022-07-29T15:20:07.091Z,25.18
2022-07-29T15:22:35.349Z,25.36
2022-07-29T15:25:03.022Z,25.35
2022-07-29T15:27:30.762Z,25.50
2022-07-29T15:29:58.870Z,25.51
2022-07-29T15:32:26.615Z,25.36
2022-07-29T15:34:54.296Z,25.32
2022-07-29T15:37:22.302Z,25.28
2022-07-29T15:39:50.477Z,25.36
2022-07-29T15:42:18.252Z,25.19
2022-07-29T15:44:46.119Z,25.21
2022-07-29T15:47:13.781Z,25.20
2022-07-29T15:49:48.560Z,25.09
2022-07-29T15:52:25.700Z,24.98
2022-07-29T15:54:56.005Z,24.99
2022-07-29T15:57:24.724Z,24.92
2022-07-29T15:59:52.601Z,24.80
2022-07-29T16:02:20.694Z,24.73
2022-07-29T16:04:48.923Z,24.57
2022-07-29T16:07:17.168Z,24.45
2022-07-29T16:09:49.248Z,24.28
2022-07-29T16:12:21.705Z,24.32
2022-07-29T16:14:51.159Z,24.11
2022-07-29T16:17:19.828Z,23.88
2022-07-29T16:19:48.078Z,23.76
2022-07-29T16:22:16.048Z,23.55
2022-07-29T16:24:43.973Z,23.41
2022-07-29T16:27:11.939Z,23.32
2022-07-29T16:29:39.701Z,23.16
2022-07-29T16:32:07.863Z,22.99
2022-07-29T16:34:36.178Z,22.84
2022-07-29T16:37:04.393Z,22.74
2022-07-29T16:39:32.615Z,22.62
2022-07-29T16:42:03.055Z,22.54
2022-07-29T16:44:33.112Z,22.56
2022-07-29T16:47:02.846Z,22.61
2022-07-29T16:49:31.622Z,22.56
2022-07-29T16:51:59.447Z,22.66
2022-07-29T16:54:27.498Z,22.71
2022-07-29T16:56:55.659Z,22.77
2022-07-29T16:59:23.734Z,22.61
2022-07-29T17:01:51.653Z,22.58
2022-07-29T17:04:19.321Z,22.50
2022-07-29T17:06:49.592Z,22.45
2022-07-29T17:09:17.539Z,22.50
2022-07-29T17:11:53.111Z,22.42
2022-07-29T17:14:28.187Z,22.40
2022-07-29T17:17:00.329Z,22.38
2022-07-29T17:19:31.905Z,22.33
2022-07-29T17:22:12.961Z,22.29
2022-07-29T17:24:42.893Z,22.23
2022-07-29T17:27:11.216Z,22.24
2022-07-29T17:29:39.713Z,22.28
2022-07-29T17:32:09.465Z,22.22
2022-07-29T17:34:38.814Z,22.31
2022-07-29T17:37:09.379Z,22.32
2022-07-29T17:39:40.724Z,22.30
2022-07-29T17:42:13.472Z,22.34
2022-07-29T17:44:42.231Z,22.29
2022-07-29T17:47:15.896Z,22.29
2022-07-29T17:49:45.584Z,22.21
2022-07-29T17:52:13.433Z,22.14
2022-07-29T17:54:41.309Z,22.09
2022-07-29T17:57:09.177Z,21.94
2022-07-29T17:59:36.908Z,21.85
2022-07-29T18:02:04.652Z,21.78
2022-07-29T18:04:32.724Z,21.77
2022-07-29T18:07:00.843Z,21.73
2022-07-29T18:09:28.967Z,21.55
2022-07-29T18:11:56.863Z,21.49
2022-07-29T18:14:24.643Z,21.43
2022-07-29T18:16:52.441Z,21.41
2022-07-29T18:19:20.382Z,21.40
2022-07-29T18:21:54.479Z,21.40
2022-07-29T18:24:25.983Z,21.21
2022-07-29T18:26:54.148Z,21.05
2022-07-29T18:29:22.459Z,20.99
2022-07-29T18:31:50.766Z,20.82
2022-07-29T18:34:18.665Z,20.84
2022-07-29T18:36:46.878Z,20.76
2022-07-29T18:39:19.162Z,20.68
2022-07-29T18:41:51.366Z,20.73
2022-07-29T18:44:22.979Z,20.59
2022-07-29T18:46:52.118Z,20.57
2022-07-29T18:49:20.504Z,20.46
2022-07-29T18:51:49.293Z,20.31
2022-07-29T18:54:17.627Z,20.41
2022-07-29T18:56:46.708Z,20.35
2022-07-29T18:59:20.234Z,20.22
2022-07-29T19:01:48.940Z,20.15
2022-07-29T19:04:17.422Z,20.15
2022-07-29T19:06:45.283Z,20.05
2022-07-29T19:09:13.237Z,19.92
2022-07-29T19:11:41.066Z,19.82
2022-07-29T19:14:09.105Z,19.84
2022-07-29T19:16:37.101Z,19.66
2022-07-29T19:19:05.651Z,19.58
2022-07-29T19:21:33.415Z,19.51
2022-07-29T19:24:06.544Z,19.45
2022-07-29T19:26:36.815Z,19.45
2022-07-29T19:29:04.913Z,19.29
2022-07-29T19:31:32.825Z,19.20
2022-07-29T19:34:00.888Z,19.22
2022-07-29T19:36:28.935Z,19.22
2022-07-29T19:38:56.745Z,19.21
2022-07-29T19:41:24.472Z,19.18
2022-07-29T19:43:53.224Z,19.05
2022-07-29T19:46:25.601Z,19.11
2022-07-29T19:48:53.612Z,19.06
2022-07-29T19:51:22.600Z,19.10
2022-07-29T19:53:51.491Z,19.08
2022-07-29T19:56:19.457Z,19.01
2022-07-29T19:58:47.180Z,18.97
2022-07-29T20:01:16.682Z,19.05
2022-07-29T20:03:45.070Z,19.01
2022-07-29T20:06:13.016Z,18.96
2022-07-29T20:08:40.749Z,18.80
2022-07-29T20:11:08.939Z,18.73
2022-07-29T20:13:36.632Z,18.75
2022-07-29T20:16:06.467Z,18.67
2022-07-29T20:18:35.020Z,18.80
2022-07-29T20:21:03.841Z,18.76
2022-07-29T20:23:33.160Z,18.57
2022-07-29T20:26:02.437Z,18.48
2022-07-29T20:28:31.382Z,18.51
2022-07-29T20:30:59.116Z,18.45
2022-07-29T20:33:27.083Z,18.48
2022-07-29T20:35:54.833Z,18.40
2022-07-29T20:38:22.596Z,18.28
2022-07-29T20:40:50.967Z,18.29
2022-07-29T20:43:18.700Z,18.39
2022-07-29T20:45:46.430Z,18.24
2022-07-29T20:48:14.413Z,18.16
2022-07-29T20:50:42.850Z,18.22
2022-07-29T20:53:11.116Z,18.22
2022-07-29T20:55:39.064Z,18.13
2022-07-29T20:58:06.935Z,18.03
2022-07-29T21:00:34.672Z,18.04
2022-07-29T21:03:02.637Z,18.05
2022-07-29T21:05:30.352Z,18.11
2022-07-29T21:07:58.363Z,18.02
2022-07-29T21:10:26.598Z,18.04
2022-07-29T21:12:54.308Z,17.95
2022-07-29T21:15:22.359Z,17.94
2022-07-29T21:17:52.529Z,17.96
2022-07-29T21:20:20.751Z,17.79
2022-07-29T21:22:48.386Z,17.89
2022-07-29T21:25:16.348Z,17.83
2022-07-29T21:28:02.661Z,17.80
2022-07-29T21:30:30.661Z,17.94
2022-07-29T21:32:58.383Z,17.98
2022-07-29T21:35:45.270Z,18.05
2022-07-29T21:38:16.454Z,17.94
2022-07-29T21:40:45.812Z,17.82
2022-07-29T21:43:13.940Z,17.88
2022-07-29T21:45:42.670Z,17.70
2022-07-29T21:48:10.716Z,17.59
2022-07-29T21:50:38.436Z,17.58
2022-07-29T21:53:06.445Z,17.59
2022-07-29T21:55:34.298Z,17.55
2022-07-29T21:58:02.233Z,17.50
2022-07-29T22:00:32.518Z,17.46
2022-07-29T22:03:04.732Z,17.41
2022-07-29T22:05:33.038Z,17.49
2022-07-29T22:08:00.975Z,17.59
2022-07-29T22:10:30.794Z,17.54
2022-07-29T22:13:00.074Z,17.38
2022-07-29T22:15:29.254Z,17.37
2022-07-29T22:17:57.180Z,17.28
2022-07-29T22:20:25.521Z,17.19
2022-07-29T22:22:53.823Z,17.23
2022-07-29T22:25:21.623Z,17.25
2022-07-29T22:27:49.510Z,17.20
2022-07-29T22:30:19.347Z,17.19
2022-07-29T22:32:48.412Z,17.17
2022-07-29T22:35:16.942Z,17.21
2022-07-29T22:37:44.740Z,17.15
2022-07-29T22:40:12.733Z,17.17
2022-07-29T22:42:41.116Z,16.98
2022-07-29T22:45:10.062Z,17.10
2022-07-29T22:47:46.578Z,17.06
2022-07-29T22:50:17.162Z,17.16
2022-07-29T22:52:45.900Z,17.20
2022-07-29T22:55:14.390Z,17.06
2022-07-29T22:57:42.464Z,17.12
2022-07-29T23:00:10.808Z,17.19
2022-07-29T23:02:40.179Z,17.09
2022-07-29T23:05:11.509Z,17.23
2022-07-29T23:07:39.312Z,17.14
2022-07-29T23:10:07.887Z,17.14
2022-07-29T23:12:36.296Z,17.11
2022-07-29T23:15:05.083Z,17.15
2022-07-29T23:17:36.045Z,17.14
2022-07-29T23:20:07.625Z,17.21
2022-07-29T23:22:36.230Z,17.34
2022-07-29T23:25:05.124Z,17.27
2022-07-29T23:27:33.038Z,17.51
2022-07-29T23:30:01.049Z,17.47
2022-07-29T23:32:28.713Z,17.47
2022-07-29T23:34:56.640Z,17.53
2022-07-29T23:37:24.369Z,17.47
2022-07-29T23:39:54.758Z,17.46
2022-07-29T23:42:22.922Z,17.55
2022-07-29T23:44:50.724Z,17.63
2022-07-29T23:47:18.503Z,17.61
2022-07-29T23:49:46.570Z,17.68
2022-07-29T23:52:14.320Z,17.60
2022-07-29T23:54:42.249Z,17.58
2022-07-29T23:57:10.153Z,17.60
2022-07-29T23:59:37.893Z,17.74
